sensor_id;sensor_type;location;lat;lon;timestamp;pressure;altitude;pressure_sealevel;temperature;humidity
45323;BME280;31382;50.200;8.674;2024-03-07T00:00:46;101117.28;;;6.32;67.50
45323;BME280;31382;50.200;8.674;2024-03-07T00:05:49;101114.72;;;6.30;67.12
45323;BME280;31382;50.200;8.674;2024-03-07T00:10:50;101116.22;;;6.23;67.76
45323;BME280;31382;50.200;8.674;2024-03-07T00:15:52;101110.28;;;6.20;67.69
45323;BME280;31382;50.200;8.674;2024-03-07T00:20:54;101114.53;;;6.22;67.85
45323;BME280;31382;50.200;8.674;2024-03-07T00:25:56;101111.28;;;6.19;67.78
45323;BME280;31382;50.200;8.674;2024-03-07T00:30:58;101108.59;;;6.19;68.33
45323;BME280;31382;50.200;8.674;2024-03-07T00:35:59;101117.94;;;6.24;67.90
45323;BME280;31382;50.200;8.674;2024-03-07T00:41:01;101111.47;;;6.27;67.75
45323;BME280;31382;50.200;8.674;2024-03-07T00:46:03;101115.09;;;6.26;68.49
45323;BME280;31382;50.200;8.674;2024-03-07T00:51:04;101109.75;;;6.26;68.90
45323;BME280;31382;50.200;8.674;2024-03-07T00:56:05;101108.22;;;6.23;68.28
45323;BME280;31382;50.200;8.674;2024-03-07T01:01:07;101104.69;;;6.23;68.93
45323;BME280;31382;50.200;8.674;2024-03-07T01:06:08;101100.47;;;6.20;68.40
45323;BME280;31382;50.200;8.674;2024-03-07T01:11:13;101097.94;;;6.19;68.84
45323;BME280;31382;50.200;8.674;2024-03-07T01:16:15;101097.56;;;6.12;68.79
45323;BME280;31382;50.200;8.674;2024-03-07T01:21:16;101102.47;;;6.07;68.37
45323;BME280;31382;50.200;8.674;2024-03-07T01:26:18;101096.13;;;6.08;68.76
45323;BME280;31382;50.200;8.674;2024-03-07T01:31:19;101100.63;;;6.07;68.29
45323;BME280;31382;50.200;8.674;2024-03-07T01:36:21;101104.28;;;6.06;68.76
45323;BME280;31382;50.200;8.674;2024-03-07T01:41:22;101094.97;;;6.01;68.12
45323;BME280;31382;50.200;8.674;2024-03-07T01:46:24;101096.06;;;5.98;68.48
45323;BME280;31382;50.200;8.674;2024-03-07T01:51:26;101093.38;;;5.98;68.61
45323;BME280;31382;50.200;8.674;2024-03-07T01:56:28;101080.66;;;5.90;68.28
45323;BME280;31382;50.200;8.674;2024-03-07T02:01:31;101086.13;;;5.89;68.70
45323;BME280;31382;50.200;8.674;2024-03-07T02:06:33;101085.66;;;5.84;68.59
45323;BME280;31382;50.200;8.674;2024-03-07T02:11:35;101086.50;;;5.84;68.59
45323;BME280;31382;50.200;8.674;2024-03-07T02:16:36;101083.38;;;5.79;68.76
45323;BME280;31382;50.200;8.674;2024-03-07T02:21:38;101081.06;;;5.74;68.46
45323;BME280;31382;50.200;8.674;2024-03-07T02:26:39;101069.84;;;5.71;68.29
45323;BME280;31382;50.200;8.674;2024-03-07T02:31:41;101070.59;;;5.62;68.39
45323;BME280;31382;50.200;8.674;2024-03-07T02:36:43;101065.38;;;5.60;68.08
45323;BME280;31382;50.200;8.674;2024-03-07T02:41:44;101061.59;;;5.63;68.12
45323;BME280;31382;50.200;8.674;2024-03-07T02:46:46;101069.03;;;5.59;67.99
45323;BME280;31382;50.200;8.674;2024-03-07T02:51:50;101060.31;;;5.57;68.57
45323;BME280;31382;50.200;8.674;2024-03-07T02:56:51;101061.97;;;5.58;67.88
45323;BME280;31382;50.200;8.674;2024-03-07T03:01:53;101065.00;;;5.65;68.34
45323;BME280;31382;50.200;8.674;2024-03-07T03:06:54;101062.41;;;5.74;67.23
45323;BME280;31382;50.200;8.674;2024-03-07T03:11:56;101054.28;;;5.76;67.91
45323;BME280;31382;50.200;8.674;2024-03-07T03:16:57;101053.44;;;5.75;68.10
45323;BME280;31382;50.200;8.674;2024-03-07T03:22:00;101053.84;;;5.71;67.56
45323;BME280;31382;50.200;8.674;2024-03-07T03:27:01;101046.34;;;5.65;67.23
45323;BME280;31382;50.200;8.674;2024-03-07T03:32:03;101045.03;;;5.59;67.60
45323;BME280;31382;50.200;8.674;2024-03-07T03:37:05;101048.44;;;5.50;67.89
45323;BME280;31382;50.200;8.674;2024-03-07T03:42:06;101043.25;;;5.37;67.82
45323;BME280;31382;50.200;8.674;2024-03-07T03:47:08;101038.56;;;5.29;67.42
45323;BME280;31382;50.200;8.674;2024-03-07T03:52:09;101034.09;;;5.19;67.97
45323;BME280;31382;50.200;8.674;2024-03-07T03:57:11;101035.91;;;5.07;67.50
45323;BME280;31382;50.200;8.674;2024-03-07T04:02:12;101035.81;;;4.97;67.69
45323;BME280;31382;50.200;8.674;2024-03-07T04:07:14;101038.38;;;4.87;68.26
45323;BME280;31382;50.200;8.674;2024-03-07T04:12:19;101040.91;;;4.77;68.43
45323;BME280;31382;50.200;8.674;2024-03-07T04:17:20;101036.44;;;4.67;68.18
45323;BME280;31382;50.200;8.674;2024-03-07T04:22:22;101044.41;;;4.55;68.27
45323;BME280;31382;50.200;8.674;2024-03-07T04:27:24;101047.44;;;4.51;68.47
45323;BME280;31382;50.200;8.674;2024-03-07T04:32:27;101049.84;;;4.43;68.93
45323;BME280;31382;50.200;8.674;2024-03-07T04:37:28;101049.34;;;4.37;68.97
45323;BME280;31382;50.200;8.674;2024-03-07T04:42:30;101045.25;;;4.33;69.08
45323;BME280;31382;50.200;8.674;2024-03-07T04:47:31;101038.34;;;4.31;68.51
45323;BME280;31382;50.200;8.674;2024-03-07T04:52:33;101041.34;;;4.26;68.57
45323;BME280;31382;50.200;8.674;2024-03-07T04:57:35;101040.88;;;4.21;69.08
45323;BME280;31382;50.200;8.674;2024-03-07T05:02:37;101041.94;;;4.18;69.14
45323;BME280;31382;50.200;8.674;2024-03-07T05:07:38;101044.25;;;4.23;68.66
45323;BME280;31382;50.200;8.674;2024-03-07T05:12:41;101039.56;;;4.27;68.54
45323;BME280;31382;50.200;8.674;2024-03-07T05:17:42;101045.59;;;4.29;68.75
45323;BME280;31382;50.200;8.674;2024-03-07T05:22:45;101040.03;;;4.32;68.93
45323;BME280;31382;50.200;8.674;2024-03-07T05:27:51;101042.56;;;4.33;68.56
45323;BME280;31382;50.200;8.674;2024-03-07T05:32:53;101038.34;;;4.31;68.60
45323;BME280;31382;50.200;8.674;2024-03-07T05:37:55;101046.44;;;4.29;68.60
45323;BME280;31382;50.200;8.674;2024-03-07T05:42:57;101037.94;;;4.24;68.82
45323;BME280;31382;50.200;8.674;2024-03-07T05:48:14;101038.44;;;4.18;68.37
45323;BME280;31382;50.200;8.674;2024-03-07T05:53:16;101037.22;;;4.11;68.54
45323;BME280;31382;50.200;8.674;2024-03-07T05:58:17;101042.53;;;4.11;68.40
45323;BME280;31382;50.200;8.674;2024-03-07T06:03:20;101038.69;;;4.15;68.62
45323;BME280;31382;50.200;8.674;2024-03-07T06:08:22;101043.53;;;4.21;68.31
45323;BME280;31382;50.200;8.674;2024-03-07T06:13:23;101042.78;;;4.30;68.07
45323;BME280;31382;50.200;8.674;2024-03-07T06:18:25;101040.16;;;4.42;68.11
45323;BME280;31382;50.200;8.674;2024-03-07T06:23:26;101041.28;;;4.50;68.72
45323;BME280;31382;50.200;8.674;2024-03-07T06:28:29;101040.53;;;4.60;68.10
45323;BME280;31382;50.200;8.674;2024-03-07T06:33:31;101032.69;;;4.69;67.99
45323;BME280;31382;50.200;8.674;2024-03-07T06:38:32;101036.91;;;4.72;68.32
45323;BME280;31382;50.200;8.674;2024-03-07T06:43:34;101041.16;;;4.74;68.63
45323;BME280;31382;50.200;8.674;2024-03-07T06:48:35;101037.03;;;4.82;68.16
45323;BME280;31382;50.200;8.674;2024-03-07T06:53:37;101042.25;;;4.94;68.17
45323;BME280;31382;50.200;8.674;2024-03-07T06:58:39;101034.38;;;5.04;67.77
45323;BME280;31382;50.200;8.674;2024-03-07T07:03:41;101041.47;;;5.26;68.11
45323;BME280;31382;50.200;8.674;2024-03-07T07:08:44;101040.94;;;5.44;68.19
45323;BME280;31382;50.200;8.674;2024-03-07T07:13:46;101045.03;;;5.59;68.06
45323;BME280;31382;50.200;8.674;2024-03-07T07:18:48;101042.56;;;5.67;67.60
45323;BME280;31382;50.200;8.674;2024-03-07T07:23:50;101033.78;;;5.76;67.28
45323;BME280;31382;50.200;8.674;2024-03-07T07:28:51;101029.09;;;5.69;68.04
45323;BME280;31382;50.200;8.674;2024-03-07T07:33:55;101028.63;;;5.64;67.89
45323;BME280;31382;50.200;8.674;2024-03-07T07:38:56;101024.41;;;5.61;68.10
45323;BME280;31382;50.200;8.674;2024-03-07T07:43:59;101023.63;;;5.70;67.79
45323;BME280;31382;50.200;8.674;2024-03-07T07:49:01;101019.47;;;5.78;68.08
45323;BME280;31382;50.200;8.674;2024-03-07T07:54:03;101023.06;;;5.88;68.24
45323;BME280;31382;50.200;8.674;2024-03-07T07:59:05;101018.81;;;5.97;67.96
45323;BME280;31382;50.200;8.674;2024-03-07T08:04:06;101019.88;;;6.26;67.88
45323;BME280;31382;50.200;8.674;2024-03-07T08:09:09;101013.19;;;6.42;67.03
45323;BME280;31382;50.200;8.674;2024-03-07T08:14:11;101005.66;;;6.57;67.46
45323;BME280;31382;50.200;8.674;2024-03-07T08:19:12;101013.66;;;6.78;66.96
45323;BME280;31382;50.200;8.674;2024-03-07T08:24:15;101011.13;;;6.86;66.49
45323;BME280;31382;50.200;8.674;2024-03-07T08:29:16;101004.44;;;7.01;66.27
45323;BME280;31382;50.200;8.674;2024-03-07T08:34:18;101003.47;;;7.22;66.06
45323;BME280;31382;50.200;8.674;2024-03-07T08:39:19;100998.19;;;7.61;65.50
45323;BME280;31382;50.200;8.674;2024-03-07T08:44:21;101002.38;;;8.02;64.71
45323;BME280;31382;50.200;8.674;2024-03-07T08:49:22;100993.97;;;8.44;63.92
45323;BME280;31382;50.200;8.674;2024-03-07T08:54:24;100987.09;;;8.79;63.18
45323;BME280;31382;50.200;8.674;2024-03-07T08:59:26;100987.69;;;9.01;62.91
45323;BME280;31382;50.200;8.674;2024-03-07T09:04:27;100984.47;;;9.15;62.57
45323;BME280;31382;50.200;8.674;2024-03-07T09:09:29;100984.81;;;9.48;62.08
45323;BME280;31382;50.200;8.674;2024-03-07T09:14:31;100984.41;;;9.79;61.62
45323;BME280;31382;50.200;8.674;2024-03-07T09:19:32;100983.84;;;9.93;61.71
45323;BME280;31382;50.200;8.674;2024-03-07T09:24:34;100986.53;;;9.93;60.99
45323;BME280;31382;50.200;8.674;2024-03-07T09:29:36;100975.78;;;9.93;61.06
45323;BME280;31382;50.200;8.674;2024-03-07T09:34:38;100971.13;;;10.21;60.04
45323;BME280;31382;50.200;8.674;2024-03-07T09:39:39;100971.19;;;10.29;59.92
45323;BME280;31382;50.200;8.674;2024-03-07T09:44:42;100974.50;;;10.23;59.53
45323;BME280;31382;50.200;8.674;2024-03-07T09:49:45;100967.03;;;10.35;59.17
45323;BME280;31382;50.200;8.674;2024-03-07T09:54:46;100967.63;;;10.47;58.97
45323;BME280;31382;50.200;8.674;2024-03-07T09:59:48;100975.09;;;10.69;58.26
45323;BME280;31382;50.200;8.674;2024-03-07T10:04:53;100961.09;;;10.92;57.27
45323;BME280;31382;50.200;8.674;2024-03-07T10:09:56;100961.25;;;10.99;57.30
45323;BME280;31382;50.200;8.674;2024-03-07T10:15:02;100959.28;;;11.09;56.66
45323;BME280;31382;50.200;8.674;2024-03-07T10:20:05;100951.06;;;11.27;56.45
45323;BME280;31382;50.200;8.674;2024-03-07T10:25:10;100950.59;;;11.31;56.24
45323;BME280;31382;50.200;8.674;2024-03-07T10:30:12;100951.13;;;11.51;55.29
45323;BME280;31382;50.200;8.674;2024-03-07T10:35:22;100950.28;;;11.59;54.64
45323;BME280;31382;50.200;8.674;2024-03-07T10:40:26;100952.63;;;11.70;54.77
45323;BME280;31382;50.200;8.674;2024-03-07T10:45:29;100938.00;;;11.89;54.12
45323;BME280;31382;50.200;8.674;2024-03-07T10:50:43;100938.50;;;12.01;53.75
45323;BME280;31382;50.200;8.674;2024-03-07T11:01:13;100921.56;;;13.03;52.05
45323;BME280;31382;50.200;8.674;2024-03-07T11:06:15;100922.72;;;13.08;51.92
45323;BME280;31382;50.200;8.674;2024-03-07T11:11:17;100913.69;;;13.24;51.43
45323;BME280;31382;50.200;8.674;2024-03-07T11:16:19;100910.41;;;13.37;51.24
45323;BME280;31382;50.200;8.674;2024-03-07T11:21:41;100895.38;;;14.11;50.07
45323;BME280;31382;50.200;8.674;2024-03-07T11:26:43;100883.91;;;14.38;49.36
45323;BME280;31382;50.200;8.674;2024-03-07T11:31:44;100879.22;;;14.47;49.08
45323;BME280;31382;50.200;8.674;2024-03-07T11:36:47;100873.00;;;14.17;49.77
45323;BME280;31382;50.200;8.674;2024-03-07T11:41:51;100861.44;;;13.93;50.03
45323;BME280;31382;50.200;8.674;2024-03-07T11:46:52;100849.59;;;14.09;49.66
45323;BME280;31382;50.200;8.674;2024-03-07T11:51:54;100849.22;;;14.27;49.45
45323;BME280;31382;50.200;8.674;2024-03-07T11:56:55;100837.84;;;14.83;48.91
45323;BME280;31382;50.200;8.674;2024-03-07T12:01:58;100817.31;;;17.04;45.47
45323;BME280;31382;50.200;8.674;2024-03-07T12:07:02;100791.66;;;22.24;36.00
45323;BME280;31382;50.200;8.674;2024-03-07T12:12:08;100803.34;;;20.71;38.31
45323;BME280;31382;50.200;8.674;2024-03-07T12:17:10;100800.06;;;19.26;41.05
45323;BME280;31382;50.200;8.674;2024-03-07T12:22:13;100798.06;;;20.39;38.30
45323;BME280;31382;50.200;8.674;2024-03-07T12:27:15;100797.84;;;19.41;39.68
45323;BME280;31382;50.200;8.674;2024-03-07T12:32:17;100790.53;;;18.40;41.08
45323;BME280;31382;50.200;8.674;2024-03-07T12:37:18;100787.97;;;18.00;41.23
45323;BME280;31382;50.200;8.674;2024-03-07T12:42:24;100783.00;;;17.90;41.28
45323;BME280;31382;50.200;8.674;2024-03-07T12:47:26;100786.38;;;17.05;42.13
45323;BME280;31382;50.200;8.674;2024-03-07T12:52:27;100772.25;;;16.42;42.92
45323;BME280;31382;50.200;8.674;2024-03-07T12:57:29;100781.59;;;15.84;43.78
45323;BME280;31382;50.200;8.674;2024-03-07T13:02:30;100780.81;;;15.62;43.93
45323;BME280;31382;50.200;8.674;2024-03-07T13:07:32;100779.25;;;15.46;43.66
45323;BME280;31382;50.200;8.674;2024-03-07T13:12:33;100777.06;;;15.07;44.16
45323;BME280;31382;50.200;8.674;2024-03-07T13:17:35;100775.03;;;14.87;44.15
45323;BME280;31382;50.200;8.674;2024-03-07T13:22:44;100763.69;;;14.77;43.99
45323;BME280;31382;50.200;8.674;2024-03-07T13:27:59;100764.06;;;14.38;44.74
45323;BME280;31382;50.200;8.674;2024-03-07T13:33:02;100755.81;;;14.24;44.85
45323;BME280;31382;50.200;8.674;2024-03-07T13:38:04;100762.56;;;13.99;45.13
45323;BME280;31382;50.200;8.674;2024-03-07T13:43:07;100766.78;;;13.86;45.48
45323;BME280;31382;50.200;8.674;2024-03-07T13:48:10;100756.63;;;13.59;45.92
45323;BME280;31382;50.200;8.674;2024-03-07T13:53:15;100756.19;;;13.32;46.81
45323;BME280;31382;50.200;8.674;2024-03-07T14:31:11;100733.22;;;12.29;49.18
45323;BME280;31382;50.200;8.674;2024-03-07T14:36:13;100728.31;;;12.33;49.41
45323;BME280;31382;50.200;8.674;2024-03-07T14:41:17;100723.97;;;12.23;49.36
45323;BME280;31382;50.200;8.674;2024-03-07T14:46:19;100729.59;;;12.14;49.56
45323;BME280;31382;50.200;8.674;2024-03-07T14:51:21;100731.09;;;12.16;48.81
45323;BME280;31382;50.200;8.674;2024-03-07T14:56:22;100726.56;;;12.17;48.93
45323;BME280;31382;50.200;8.674;2024-03-07T15:01:24;100716.44;;;12.19;48.60
45323;BME280;31382;50.200;8.674;2024-03-07T15:06:27;100714.41;;;12.21;48.64
45323;BME280;31382;50.200;8.674;2024-03-07T15:11:37;100711.94;;;12.11;48.79
45323;BME280;31382;50.200;8.674;2024-03-07T15:16:42;100709.06;;;12.13;48.63
45323;BME280;31382;50.200;8.674;2024-03-07T15:21:43;100703.84;;;12.11;48.57
45323;BME280;31382;50.200;8.674;2024-03-07T15:26:45;100708.25;;;12.04;48.53
45323;BME280;31382;50.200;8.674;2024-03-07T15:31:49;100697.69;;;11.94;48.90
45323;BME280;31382;50.200;8.674;2024-03-07T15:37:00;100692.97;;;11.96;48.88
45323;BME280;31382;50.200;8.674;2024-03-07T15:42:04;100687.28;;;11.91;48.50
45323;BME280;31382;50.200;8.674;2024-03-07T15:47:06;100682.84;;;11.98;48.75
45323;BME280;31382;50.200;8.674;2024-03-07T15:52:09;100683.22;;;11.95;48.66
45323;BME280;31382;50.200;8.674;2024-03-07T15:57:10;100671.75;;;12.01;48.43
45323;BME280;31382;50.200;8.674;2024-03-07T16:02:12;100669.16;;;12.08;48.51
45323;BME280;31382;50.200;8.674;2024-03-07T16:07:16;100668.66;;;12.04;48.87
45323;BME280;31382;50.200;8.674;2024-03-07T16:12:17;100664.97;;;12.05;48.61
45323;BME280;31382;50.200;8.674;2024-03-07T16:17:18;100657.72;;;12.06;48.65
45323;BME280;31382;50.200;8.674;2024-03-07T16:22:21;100662.28;;;12.05;49.02
45323;BME280;31382;50.200;8.674;2024-03-07T16:27:24;100657.22;;;12.02;48.95
45323;BME280;31382;50.200;8.674;2024-03-07T16:32:25;100660.97;;;12.01;48.83
45323;BME280;31382;50.200;8.674;2024-03-07T16:37:28;100654.31;;;11.89;48.99
45323;BME280;31382;50.200;8.674;2024-03-07T16:42:29;100659.69;;;11.89;48.95
45323;BME280;31382;50.200;8.674;2024-03-07T16:47:31;100657.84;;;11.81;49.27
45323;BME280;31382;50.200;8.674;2024-03-07T16:52:33;100658.72;;;11.74;49.26
45323;BME280;31382;50.200;8.674;2024-03-07T16:57:38;100658.41;;;11.68;49.03
45323;BME280;31382;50.200;8.674;2024-03-07T17:02:40;100655.91;;;11.59;49.18
45323;BME280;31382;50.200;8.674;2024-03-07T17:07:42;100655.25;;;11.57;49.23
45323;BME280;31382;50.200;8.674;2024-03-07T17:12:47;100658.16;;;11.47;48.67
45323;BME280;31382;50.200;8.674;2024-03-07T17:17:50;100656.81;;;11.43;49.19
45323;BME280;31382;50.200;8.674;2024-03-07T17:22:53;100655.66;;;11.37;48.78
45323;BME280;31382;50.200;8.674;2024-03-07T17:27:55;100662.25;;;11.35;49.17
45323;BME280;31382;50.200;8.674;2024-03-07T17:32:58;100665.78;;;11.27;49.18
45323;BME280;31382;50.200;8.674;2024-03-07T17:38:01;100665.28;;;11.23;49.17
45323;BME280;31382;50.200;8.674;2024-03-07T17:43:03;100661.00;;;11.06;49.47
45323;BME280;31382;50.200;8.674;2024-03-07T17:48:06;100662.16;;;10.95;49.34
45323;BME280;31382;50.200;8.674;2024-03-07T17:53:09;100670.94;;;10.89;49.68
45323;BME280;31382;50.200;8.674;2024-03-07T17:58:15;100680.84;;;10.72;49.40
45323;BME280;31382;50.200;8.674;2024-03-07T18:03:18;100678.00;;;10.57;49.50
45323;BME280;31382;50.200;8.674;2024-03-07T18:08:20;100674.13;;;10.43;49.74
45323;BME280;31382;50.200;8.674;2024-03-07T18:13:42;100681.19;;;10.36;49.81
45323;BME280;31382;50.200;8.674;2024-03-07T18:18:44;100674.41;;;10.24;49.98
45323;BME280;31382;50.200;8.674;2024-03-07T18:23:50;100668.69;;;10.10;49.75
45323;BME280;31382;50.200;8.674;2024-03-07T18:28:55;100671.00;;;9.97;49.85
45323;BME280;31382;50.200;8.674;2024-03-07T18:33:56;100668.81;;;9.92;49.99
45323;BME280;31382;50.200;8.674;2024-03-07T18:38:58;100667.97;;;9.84;50.07
45323;BME280;31382;50.200;8.674;2024-03-07T18:43:59;100665.59;;;9.81;50.02
45323;BME280;31382;50.200;8.674;2024-03-07T18:49:04;100666.22;;;9.66;50.15
45323;BME280;31382;50.200;8.674;2024-03-07T18:54:09;100668.38;;;9.63;50.24
45323;BME280;31382;50.200;8.674;2024-03-07T18:59:11;100667.34;;;9.56;50.28
45323;BME280;31382;50.200;8.674;2024-03-07T19:04:12;100658.13;;;9.50;50.43
45323;BME280;31382;50.200;8.674;2024-03-07T19:09:14;100659.94;;;9.49;50.44
45323;BME280;31382;50.200;8.674;2024-03-07T19:14:15;100650.38;;;9.47;50.39
45323;BME280;31382;50.200;8.674;2024-03-07T19:19:17;100656.75;;;9.46;50.44
45323;BME280;31382;50.200;8.674;2024-03-07T19:24:18;100657.75;;;9.45;50.55
45323;BME280;31382;50.200;8.674;2024-03-07T19:29:21;100657.38;;;9.40;50.69
45323;BME280;31382;50.200;8.674;2024-03-07T19:34:23;100660.53;;;9.35;50.55
45323;BME280;31382;50.200;8.674;2024-03-07T19:39:24;100658.66;;;9.27;50.57
45323;BME280;31382;50.200;8.674;2024-03-07T19:44:28;100660.19;;;9.30;50.58
45323;BME280;31382;50.200;8.674;2024-03-07T19:49:32;100652.31;;;9.28;50.50
45323;BME280;31382;50.200;8.674;2024-03-07T19:54:39;100643.91;;;9.23;50.57
45323;BME280;31382;50.200;8.674;2024-03-07T19:59:40;100640.38;;;9.23;50.80
45323;BME280;31382;50.200;8.674;2024-03-07T20:04:44;100644.03;;;9.22;50.91
45323;BME280;31382;50.200;8.674;2024-03-07T20:09:46;100642.91;;;9.24;50.96
45323;BME280;31382;50.200;8.674;2024-03-07T20:14:48;100639.53;;;9.22;50.94
45323;BME280;31382;50.200;8.674;2024-03-07T20:19:50;100642.38;;;9.21;51.12
45323;BME280;31382;50.200;8.674;2024-03-07T20:24:51;100640.16;;;9.16;51.19
45323;BME280;31382;50.200;8.674;2024-03-07T20:29:53;100631.09;;;9.09;51.19
45323;BME280;31382;50.200;8.674;2024-03-07T20:34:54;100636.22;;;9.02;51.41
45323;BME280;31382;50.200;8.674;2024-03-07T20:39:57;100631.53;;;9.04;51.56
45323;BME280;31382;50.200;8.674;2024-03-07T20:45:11;100633.78;;;9.09;51.66
45323;BME280;31382;50.200;8.674;2024-03-07T20:50:15;100640.31;;;9.06;51.38
45323;BME280;31382;50.200;8.674;2024-03-07T20:55:17;100641.81;;;9.09;51.42
45323;BME280;31382;50.200;8.674;2024-03-07T21:00:24;100633.97;;;9.16;51.40
45323;BME280;31382;50.200;8.674;2024-03-07T21:05:27;100632.06;;;9.08;51.31
45323;BME280;31382;50.200;8.674;2024-03-07T21:10:28;100633.09;;;9.07;51.17
45323;BME280;31382;50.200;8.674;2024-03-07T21:15:30;100626.19;;;9.04;51.41
45323;BME280;31382;50.200;8.674;2024-03-07T21:20:33;100626.66;;;9.00;51.33
45323;BME280;31382;50.200;8.674;2024-03-07T21:25:34;100629.50;;;8.98;51.29
45323;BME280;31382;50.200;8.674;2024-03-07T21:30:37;100612.91;;;8.95;51.30
45323;BME280;31382;50.200;8.674;2024-03-07T21:35:38;100621.38;;;8.82;51.80
45323;BME280;31382;50.200;8.674;2024-03-07T21:40:42;100607.78;;;8.75;51.58
45323;BME280;31382;50.200;8.674;2024-03-07T21:45:45;100618.25;;;8.68;51.63
45323;BME280;31382;50.200;8.674;2024-03-07T21:50:46;100613.47;;;8.54;51.63
45323;BME280;31382;50.200;8.674;2024-03-07T21:55:49;100616.41;;;8.43;52.23
45323;BME280;31382;50.200;8.674;2024-03-07T22:00:51;100603.75;;;8.35;51.78
45323;BME280;31382;50.200;8.674;2024-03-07T22:05:54;100602.25;;;8.14;52.42
45323;BME280;31382;50.200;8.674;2024-03-07T22:10:55;100597.44;;;8.00;52.34
45323;BME280;31382;50.200;8.674;2024-03-07T22:15:57;100592.44;;;7.87;52.85
45323;BME280;31382;50.200;8.674;2024-03-07T22:20:58;100607.59;;;7.79;52.36
45323;BME280;31382;50.200;8.674;2024-03-07T22:26:01;100602.16;;;7.70;52.60
45323;BME280;31382;50.200;8.674;2024-03-07T22:31:03;100596.56;;;7.64;53.32
45323;BME280;31382;50.200;8.674;2024-03-07T22:36:08;100587.47;;;7.57;53.04
45323;BME280;31382;50.200;8.674;2024-03-07T22:41:09;100596.19;;;7.59;53.15
45323;BME280;31382;50.200;8.674;2024-03-07T22:46:11;100596.47;;;7.55;52.53
45323;BME280;31382;50.200;8.674;2024-03-07T22:51:13;100586.09;;;7.52;53.15
45323;BME280;31382;50.200;8.674;2024-03-07T22:56:15;100588.22;;;7.49;52.80
45323;BME280;31382;50.200;8.674;2024-03-07T23:01:17;100584.44;;;7.42;52.96
45323;BME280;31382;50.200;8.674;2024-03-07T23:06:21;100578.19;;;7.33;53.46
45323;BME280;31382;50.200;8.674;2024-03-07T23:11:22;100569.38;;;7.23;53.25
45323;BME280;31382;50.200;8.674;2024-03-07T23:16:24;100565.03;;;7.12;53.32
45323;BME280;31382;50.200;8.674;2024-03-07T23:21:29;100560.06;;;6.99;53.94
45323;BME280;31382;50.200;8.674;2024-03-07T23:26:30;100561.06;;;6.88;54.34
45323;BME280;31382;50.200;8.674;2024-03-07T23:31:31;100560.41;;;6.77;54.03
45323;BME280;31382;50.200;8.674;2024-03-07T23:36:33;100555.09;;;6.67;53.99
45323;BME280;31382;50.200;8.674;2024-03-07T23:41:34;100552.59;;;6.55;54.83
45323;BME280;31382;50.200;8.674;2024-03-07T23:46:36;100549.69;;;6.49;55.02
45323;BME280;31382;50.200;8.674;2024-03-07T23:51:46;100549.69;;;6.39;54.94
45323;BME280;31382;50.200;8.674;2024-03-07T23:56:48;100552.94;;;6.33;54.82
